sensor_id;sensor_type;location;lat;lon;timestamp;P1;durP1;ratioP1;P2;durP2;ratioP2
6193;SDS011;3130;41.564;23.280;2022-12-07T00:01:15;8.73;;;4.67;;
6193;SDS011;3130;41.564;23.280;2022-12-07T00:03:44;11.33;;;5.10;;
6193;SDS011;3130;41.564;23.280;2022-12-07T00:06:14;8.20;;;4.53;;
6193;SDS011;3130;41.564;23.280;2022-12-07T00:08:43;11.37;;;5.07;;
6193;SDS011;3130;41.564;23.280;2022-12-07T00:11:12;10.83;;;4.53;;
6193;SDS011;3130;41.564;23.280;2022-12-07T00:13:40;5.63;;;4.17;;
6193;SDS011;3130;41.564;23.280;2022-12-07T00:16:08;6.60;;;4.83;;
6193;SDS011;3130;41.564;23.280;2022-12-07T00:18:37;6.23;;;3.67;;
6193;SDS011;3130;41.564;23.280;2022-12-07T00:21:05;11.27;;;3.77;;
6193;SDS011;3130;41.564;23.280;2022-12-07T00:23:36;6.70;;;4.43;;
6193;SDS011;3130;41.564;23.280;2022-12-07T00:26:04;8.67;;;4.57;;
6193;SDS011;3130;41.564;23.280;2022-12-07T00:28:33;8.33;;;4.73;;
6193;SDS011;3130;41.564;23.280;2022-12-07T00:31:01;7.03;;;4.50;;
6193;SDS011;3130;41.564;23.280;2022-12-07T00:33:29;11.40;;;4.63;;
6193;SDS011;3130;41.564;23.280;2022-12-07T00:35:56;6.63;;;4.30;;
6193;SDS011;3130;41.564;23.280;2022-12-07T00:38:23;6.83;;;4.30;;
6193;SDS011;3130;41.564;23.280;2022-12-07T00:40:54;7.67;;;4.80;;
6193;SDS011;3130;41.564;23.280;2022-12-07T00:43:22;5.57;;;3.97;;
6193;SDS011;3130;41.564;23.280;2022-12-07T00:45:51;5.13;;;4.37;;
6193;SDS011;3130;41.564;23.280;2022-12-07T00:48:18;7.00;;;4.00;;
6193;SDS011;3130;41.564;23.280;2022-12-07T00:50:45;11.57;;;6.90;;
6193;SDS011;3130;41.564;23.280;2022-12-07T00:53:12;15.97;;;8.97;;
6193;SDS011;3130;41.564;23.280;2022-12-07T00:55:39;16.77;;;9.37;;
6193;SDS011;3130;41.564;23.280;2022-12-07T00:58:06;17.57;;;9.17;;
6193;SDS011;3130;41.564;23.280;2022-12-07T01:00:35;14.60;;;9.00;;
6193;SDS011;3130;41.564;23.280;2022-12-07T01:03:05;13.90;;;10.13;;
6193;SDS011;3130;41.564;23.280;2022-12-07T01:05:33;22.07;;;10.80;;
6193;SDS011;3130;41.564;23.280;2022-12-07T01:08:01;14.40;;;9.73;;
6193;SDS011;3130;41.564;23.280;2022-12-07T01:10:29;15.57;;;9.83;;
6193;SDS011;3130;41.564;23.280;2022-12-07T01:12:56;14.80;;;9.40;;
6193;SDS011;3130;41.564;23.280;2022-12-07T01:15:24;12.97;;;8.50;;
6193;SDS011;3130;41.564;23.280;2022-12-07T01:17:51;13.23;;;10.10;;
6193;SDS011;3130;41.564;23.280;2022-12-07T01:20:21;15.20;;;9.27;;
6193;SDS011;3130;41.564;23.280;2022-12-07T01:22:48;13.60;;;9.63;;
6193;SDS011;3130;41.564;23.280;2022-12-07T01:25:15;14.07;;;9.33;;
6193;SDS011;3130;41.564;23.280;2022-12-07T01:27:42;14.10;;;9.60;;
6193;SDS011;3130;41.564;23.280;2022-12-07T01:30:09;15.57;;;10.33;;
6193;SDS011;3130;41.564;23.280;2022-12-07T01:32:37;20.50;;;12.23;;
6193;SDS011;3130;41.564;23.280;2022-12-07T01:35:05;18.43;;;11.40;;
6193;SDS011;3130;41.564;23.280;2022-12-07T01:37:35;17.00;;;11.57;;
6193;SDS011;3130;41.564;23.280;2022-12-07T01:40:02;19.60;;;12.67;;
6193;SDS011;3130;41.564;23.280;2022-12-07T01:42:30;16.60;;;11.17;;
6193;SDS011;3130;41.564;23.280;2022-12-07T01:48:04;17.40;;;12.63;;
6193;SDS011;3130;41.564;23.280;2022-12-07T01:50:32;16.17;;;11.60;;
6193;SDS011;3130;41.564;23.280;2022-12-07T01:53:02;19.27;;;11.70;;
6193;SDS011;3130;41.564;23.280;2022-12-07T01:55:32;19.37;;;11.93;;
6193;SDS011;3130;41.564;23.280;2022-12-07T01:58:03;23.47;;;12.80;;
6193;SDS011;3130;41.564;23.280;2022-12-07T02:00:30;15.67;;;11.77;;
6193;SDS011;3130;41.564;23.280;2022-12-07T02:02:59;17.53;;;12.50;;
6193;SDS011;3130;41.564;23.280;2022-12-07T02:05:31;14.67;;;11.70;;
6193;SDS011;3130;41.564;23.280;2022-12-07T02:08:02;19.60;;;11.40;;
6193;SDS011;3130;41.564;23.280;2022-12-07T02:10:30;21.00;;;12.73;;
6193;SDS011;3130;41.564;23.280;2022-12-07T02:12:59;16.57;;;10.67;;
6193;SDS011;3130;41.564;23.280;2022-12-07T02:15:32;15.27;;;10.03;;
6193;SDS011;3130;41.564;23.280;2022-12-07T02:18:09;18.47;;;11.53;;
6193;SDS011;3130;41.564;23.280;2022-12-07T02:20:43;17.13;;;9.77;;
6193;SDS011;3130;41.564;23.280;2022-12-07T02:23:27;21.13;;;10.33;;
6193;SDS011;3130;41.564;23.280;2022-12-07T02:26:16;15.17;;;8.77;;
6193;SDS011;3130;41.564;23.280;2022-12-07T02:29:00;14.13;;;10.63;;
6193;SDS011;3130;41.564;23.280;2022-12-07T02:31:51;16.53;;;11.27;;
6193;SDS011;3130;41.564;23.280;2022-12-07T02:34:28;18.97;;;11.10;;
6193;SDS011;3130;41.564;23.280;2022-12-07T02:37:00;17.03;;;10.97;;
6193;SDS011;3130;41.564;23.280;2022-12-07T02:39:34;26.37;;;14.30;;
6193;SDS011;3130;41.564;23.280;2022-12-07T02:42:09;24.13;;;13.40;;
6193;SDS011;3130;41.564;23.280;2022-12-07T02:44:43;17.40;;;11.13;;
6193;SDS011;3130;41.564;23.280;2022-12-07T02:47:12;18.87;;;12.67;;
6193;SDS011;3130;41.564;23.280;2022-12-07T02:49:43;21.97;;;10.90;;
6193;SDS011;3130;41.564;23.280;2022-12-07T02:52:10;18.23;;;11.20;;
6193;SDS011;3130;41.564;23.280;2022-12-07T02:54:38;26.20;;;11.97;;
6193;SDS011;3130;41.564;23.280;2022-12-07T02:57:08;17.40;;;10.13;;
6193;SDS011;3130;41.564;23.280;2022-12-07T02:59:48;12.93;;;8.80;;
6193;SDS011;3130;41.564;23.280;2022-12-07T03:02:25;11.60;;;8.20;;
6193;SDS011;3130;41.564;23.280;2022-12-07T03:05:05;10.20;;;6.97;;
6193;SDS011;3130;41.564;23.280;2022-12-07T03:07:50;11.67;;;7.10;;
6193;SDS011;3130;41.564;23.280;2022-12-07T03:10:27;9.90;;;7.07;;
6193;SDS011;3130;41.564;23.280;2022-12-07T03:13:07;11.73;;;6.30;;
6193;SDS011;3130;41.564;23.280;2022-12-07T03:15:41;11.40;;;5.77;;
6193;SDS011;3130;41.564;23.280;2022-12-07T03:18:13;12.60;;;5.53;;
6193;SDS011;3130;41.564;23.280;2022-12-07T03:20:44;7.40;;;5.20;;
6193;SDS011;3130;41.564;23.280;2022-12-07T03:23:15;9.10;;;5.80;;
6193;SDS011;3130;41.564;23.280;2022-12-07T03:25:45;7.23;;;5.13;;
6193;SDS011;3130;41.564;23.280;2022-12-07T03:28:16;7.87;;;5.60;;
6193;SDS011;3130;41.564;23.280;2022-12-07T03:30:48;7.93;;;5.43;;
6193;SDS011;3130;41.564;23.280;2022-12-07T03:33:20;9.47;;;5.87;;
6193;SDS011;3130;41.564;23.280;2022-12-07T03:35:52;11.30;;;6.27;;
6193;SDS011;3130;41.564;23.280;2022-12-07T03:38:27;9.40;;;6.00;;
6193;SDS011;3130;41.564;23.280;2022-12-07T03:41:00;9.20;;;5.60;;
6193;SDS011;3130;41.564;23.280;2022-12-07T03:43:31;9.43;;;5.53;;
6193;SDS011;3130;41.564;23.280;2022-12-07T03:46:01;13.30;;;6.40;;
6193;SDS011;3130;41.564;23.280;2022-12-07T03:48:36;14.43;;;6.57;;
6193;SDS011;3130;41.564;23.280;2022-12-07T03:51:10;9.30;;;6.70;;
6193;SDS011;3130;41.564;23.280;2022-12-07T03:53:45;12.13;;;7.57;;
6193;SDS011;3130;41.564;23.280;2022-12-07T03:56:16;9.20;;;7.47;;
6193;SDS011;3130;41.564;23.280;2022-12-07T03:58:44;13.17;;;8.50;;
6193;SDS011;3130;41.564;23.280;2022-12-07T04:01:13;13.20;;;7.07;;
6193;SDS011;3130;41.564;23.280;2022-12-07T04:03:40;18.10;;;10.40;;
6193;SDS011;3130;41.564;23.280;2022-12-07T04:06:07;19.03;;;10.93;;
6193;SDS011;3130;41.564;23.280;2022-12-07T04:08:34;22.37;;;11.67;;
6193;SDS011;3130;41.564;23.280;2022-12-07T04:11:01;21.57;;;11.80;;
6193;SDS011;3130;41.564;23.280;2022-12-07T04:13:28;16.73;;;11.13;;
6193;SDS011;3130;41.564;23.280;2022-12-07T04:16:17;21.40;;;11.73;;
6193;SDS011;3130;41.564;23.280;2022-12-07T04:18:44;20.00;;;12.03;;
6193;SDS011;3130;41.564;23.280;2022-12-07T04:21:11;20.67;;;13.37;;
6193;SDS011;3130;41.564;23.280;2022-12-07T04:23:38;23.67;;;15.80;;
6193;SDS011;3130;41.564;23.280;2022-12-07T04:26:05;20.60;;;14.37;;
6193;SDS011;3130;41.564;23.280;2022-12-07T04:28:32;20.00;;;12.60;;
6193;SDS011;3130;41.564;23.280;2022-12-07T04:30:59;25.43;;;13.73;;
6193;SDS011;3130;41.564;23.280;2022-12-07T04:33:28;18.57;;;12.47;;
6193;SDS011;3130;41.564;23.280;2022-12-07T04:35:55;24.33;;;13.17;;
6193;SDS011;3130;41.564;23.280;2022-12-07T04:38:22;24.30;;;15.10;;
6193;SDS011;3130;41.564;23.280;2022-12-07T04:40:49;26.47;;;18.03;;
6193;SDS011;3130;41.564;23.280;2022-12-07T04:43:16;28.27;;;17.37;;
6193;SDS011;3130;41.564;23.280;2022-12-07T04:45:45;27.97;;;17.43;;
6193;SDS011;3130;41.564;23.280;2022-12-07T04:48:13;24.47;;;15.37;;
6193;SDS011;3130;41.564;23.280;2022-12-07T04:50:41;30.60;;;15.20;;
6193;SDS011;3130;41.564;23.280;2022-12-07T04:53:08;26.63;;;16.07;;
6193;SDS011;3130;41.564;23.280;2022-12-07T04:55:35;25.67;;;15.53;;
6193;SDS011;3130;41.564;23.280;2022-12-07T04:58:02;34.43;;;17.03;;
6193;SDS011;3130;41.564;23.280;2022-12-07T05:00:29;33.20;;;17.00;;
6193;SDS011;3130;41.564;23.280;2022-12-07T05:02:56;24.13;;;15.57;;
6193;SDS011;3130;41.564;23.280;2022-12-07T05:05:24;20.77;;;14.60;;
6193;SDS011;3130;41.564;23.280;2022-12-07T05:07:53;24.67;;;15.03;;
6193;SDS011;3130;41.564;23.280;2022-12-07T05:10:20;23.27;;;16.47;;
6193;SDS011;3130;41.564;23.280;2022-12-07T05:12:47;29.13;;;16.30;;
6193;SDS011;3130;41.564;23.280;2022-12-07T05:15:14;47.40;;;29.77;;
6193;SDS011;3130;41.564;23.280;2022-12-07T05:17:43;34.63;;;20.80;;
6193;SDS011;3130;41.564;23.280;2022-12-07T05:20:10;22.87;;;14.80;;
6193;SDS011;3130;41.564;23.280;2022-12-07T05:22:38;24.37;;;15.40;;
6193;SDS011;3130;41.564;23.280;2022-12-07T05:25:07;23.07;;;16.83;;
6193;SDS011;3130;41.564;23.280;2022-12-07T05:27:34;25.77;;;16.60;;
6193;SDS011;3130;41.564;23.280;2022-12-07T05:30:01;24.17;;;16.20;;
6193;SDS011;3130;41.564;23.280;2022-12-07T05:32:29;27.10;;;17.53;;
6193;SDS011;3130;41.564;23.280;2022-12-07T05:34:56;24.30;;;15.43;;
6193;SDS011;3130;41.564;23.280;2022-12-07T05:37:23;26.20;;;16.40;;
6193;SDS011;3130;41.564;23.280;2022-12-07T05:39:50;26.77;;;15.40;;
6193;SDS011;3130;41.564;23.280;2022-12-07T05:42:18;29.30;;;15.87;;
6193;SDS011;3130;41.564;23.280;2022-12-07T05:44:45;22.50;;;15.67;;
6193;SDS011;3130;41.564;23.280;2022-12-07T05:47:13;32.60;;;18.40;;
6193;SDS011;3130;41.564;23.280;2022-12-07T05:49:41;28.53;;;19.07;;
6193;SDS011;3130;41.564;23.280;2022-12-07T05:52:08;24.30;;;16.70;;
6193;SDS011;3130;41.564;23.280;2022-12-07T05:54:35;31.10;;;18.67;;
6193;SDS011;3130;41.564;23.280;2022-12-07T05:57:02;27.47;;;19.17;;
6193;SDS011;3130;41.564;23.280;2022-12-07T05:59:31;31.97;;;21.43;;
6193;SDS011;3130;41.564;23.280;2022-12-07T06:01:57;34.87;;;18.23;;
6193;SDS011;3130;41.564;23.280;2022-12-07T06:04:26;29.10;;;20.70;;
6193;SDS011;3130;41.564;23.280;2022-12-07T06:06:54;27.53;;;18.00;;
6193;SDS011;3130;41.564;23.280;2022-12-07T06:09:22;25.83;;;17.00;;
6193;SDS011;3130;41.564;23.280;2022-12-07T06:11:50;25.77;;;19.10;;
6193;SDS011;3130;41.564;23.280;2022-12-07T06:14:36;34.33;;;19.10;;
6193;SDS011;3130;41.564;23.280;2022-12-07T06:17:05;22.97;;;14.83;;
6193;SDS011;3130;41.564;23.280;2022-12-07T06:19:32;21.97;;;13.43;;
6193;SDS011;3130;41.564;23.280;2022-12-07T06:22:00;18.47;;;12.57;;
6193;SDS011;3130;41.564;23.280;2022-12-07T06:24:27;21.47;;;14.40;;
6193;SDS011;3130;41.564;23.280;2022-12-07T06:26:54;19.37;;;12.53;;
6193;SDS011;3130;41.564;23.280;2022-12-07T06:29:21;20.37;;;12.23;;
6193;SDS011;3130;41.564;23.280;2022-12-07T06:31:50;20.53;;;12.80;;
6193;SDS011;3130;41.564;23.280;2022-12-07T06:34:18;23.40;;;14.37;;
6193;SDS011;3130;41.564;23.280;2022-12-07T06:36:48;18.80;;;13.57;;
6193;SDS011;3130;41.564;23.280;2022-12-07T06:39:17;21.93;;;14.20;;
6193;SDS011;3130;41.564;23.280;2022-12-07T06:41:44;23.30;;;14.57;;
6193;SDS011;3130;41.564;23.280;2022-12-07T06:44:11;20.37;;;14.13;;
6193;SDS011;3130;41.564;23.280;2022-12-07T06:46:38;20.73;;;14.13;;
6193;SDS011;3130;41.564;23.280;2022-12-07T06:49:07;25.93;;;14.47;;
6193;SDS011;3130;41.564;23.280;2022-12-07T06:51:34;26.37;;;15.03;;
6193;SDS011;3130;41.564;23.280;2022-12-07T06:54:06;26.23;;;14.60;;
6193;SDS011;3130;41.564;23.280;2022-12-07T06:56:33;21.33;;;14.13;;
6193;SDS011;3130;41.564;23.280;2022-12-07T06:59:00;23.37;;;15.30;;
6193;SDS011;3130;41.564;23.280;2022-12-07T07:01:27;28.23;;;16.60;;
6193;SDS011;3130;41.564;23.280;2022-12-07T07:03:54;20.67;;;14.40;;
6193;SDS011;3130;41.564;23.280;2022-12-07T07:06:23;22.37;;;13.13;;
6193;SDS011;3130;41.564;23.280;2022-12-07T07:08:50;17.77;;;11.40;;
6193;SDS011;3130;41.564;23.280;2022-12-07T07:11:17;18.30;;;11.53;;
6193;SDS011;3130;41.564;23.280;2022-12-07T07:13:44;19.20;;;12.87;;
6193;SDS011;3130;41.564;23.280;2022-12-07T07:16:11;21.13;;;14.03;;
6193;SDS011;3130;41.564;23.280;2022-12-07T07:18:39;21.57;;;13.57;;
6193;SDS011;3130;41.564;23.280;2022-12-07T07:21:06;24.17;;;15.57;;
6193;SDS011;3130;41.564;23.280;2022-12-07T07:23:34;19.07;;;13.43;;
6193;SDS011;3130;41.564;23.280;2022-12-07T07:26:01;25.00;;;13.87;;
6193;SDS011;3130;41.564;23.280;2022-12-07T07:28:29;24.13;;;19.13;;
6193;SDS011;3130;41.564;23.280;2022-12-07T07:30:56;33.33;;;17.53;;
6193;SDS011;3130;41.564;23.280;2022-12-07T07:33:24;44.10;;;27.33;;
6193;SDS011;3130;41.564;23.280;2022-12-07T07:35:50;54.60;;;34.67;;
6193;SDS011;3130;41.564;23.280;2022-12-07T07:38:18;49.67;;;31.53;;
6193;SDS011;3130;41.564;23.280;2022-12-07T07:40:47;39.60;;;25.70;;
6193;SDS011;3130;41.564;23.280;2022-12-07T07:43:14;39.87;;;22.70;;
6193;SDS011;3130;41.564;23.280;2022-12-07T07:45:41;33.83;;;21.13;;
6193;SDS011;3130;41.564;23.280;2022-12-07T07:48:08;32.97;;;22.73;;
6193;SDS011;3130;41.564;23.280;2022-12-07T07:50:35;38.13;;;22.73;;
6193;SDS011;3130;41.564;23.280;2022-12-07T07:53:02;31.00;;;21.63;;
6193;SDS011;3130;41.564;23.280;2022-12-07T07:55:29;29.83;;;17.53;;
6193;SDS011;3130;41.564;23.280;2022-12-07T07:57:58;31.00;;;19.47;;
6193;SDS011;3130;41.564;23.280;2022-12-07T08:00:25;29.23;;;20.60;;
6193;SDS011;3130;41.564;23.280;2022-12-07T08:02:52;27.93;;;19.37;;
6193;SDS011;3130;41.564;23.280;2022-12-07T08:05:19;32.80;;;20.50;;
6193;SDS011;3130;41.564;23.280;2022-12-07T08:07:46;24.70;;;16.57;;
6193;SDS011;3130;41.564;23.280;2022-12-07T08:10:13;25.57;;;17.80;;
6193;SDS011;3130;41.564;23.280;2022-12-07T08:12:41;27.33;;;18.00;;
6193;SDS011;3130;41.564;23.280;2022-12-07T08:15:29;27.60;;;16.37;;
6193;SDS011;3130;41.564;23.280;2022-12-07T08:17:57;28.20;;;17.53;;
6193;SDS011;3130;41.564;23.280;2022-12-07T08:20:24;29.03;;;17.23;;
6193;SDS011;3130;41.564;23.280;2022-12-07T08:22:52;29.10;;;20.07;;
6193;SDS011;3130;41.564;23.280;2022-12-07T08:25:19;35.47;;;18.83;;
6193;SDS011;3130;41.564;23.280;2022-12-07T08:27:47;22.83;;;17.57;;
6193;SDS011;3130;41.564;23.280;2022-12-07T08:30:14;26.63;;;15.97;;
6193;SDS011;3130;41.564;23.280;2022-12-07T08:32:42;39.13;;;18.97;;
6193;SDS011;3130;41.564;23.280;2022-12-07T08:35:10;23.70;;;15.90;;
6193;SDS011;3130;41.564;23.280;2022-12-07T08:37:39;26.40;;;17.20;;
6193;SDS011;3130;41.564;23.280;2022-12-07T08:40:07;31.17;;;17.93;;
6193;SDS011;3130;41.564;23.280;2022-12-07T08:42:35;31.33;;;18.83;;
6193;SDS011;3130;41.564;23.280;2022-12-07T08:45:05;32.53;;;19.93;;
6193;SDS011;3130;41.564;23.280;2022-12-07T08:47:33;31.77;;;17.10;;
6193;SDS011;3130;41.564;23.280;2022-12-07T08:50:03;31.60;;;16.27;;
6193;SDS011;3130;41.564;23.280;2022-12-07T08:52:33;20.80;;;12.33;;
6193;SDS011;3130;41.564;23.280;2022-12-07T08:55:00;18.97;;;10.83;;
6193;SDS011;3130;41.564;23.280;2022-12-07T08:57:30;19.03;;;11.40;;
6193;SDS011;3130;41.564;23.280;2022-12-07T08:59:59;17.10;;;10.93;;
6193;SDS011;3130;41.564;23.280;2022-12-07T09:02:26;20.73;;;10.83;;
6193;SDS011;3130;41.564;23.280;2022-12-07T09:04:53;17.43;;;12.13;;
6193;SDS011;3130;41.564;23.280;2022-12-07T09:07:21;19.70;;;12.40;;
6193;SDS011;3130;41.564;23.280;2022-12-07T09:09:48;20.43;;;13.63;;
6193;SDS011;3130;41.564;23.280;2022-12-07T09:12:15;19.80;;;11.97;;
6193;SDS011;3130;41.564;23.280;2022-12-07T09:14:42;14.77;;;10.03;;
6193;SDS011;3130;41.564;23.280;2022-12-07T09:17:10;15.93;;;9.73;;
6193;SDS011;3130;41.564;23.280;2022-12-07T09:19:38;18.27;;;13.43;;
6193;SDS011;3130;41.564;23.280;2022-12-07T09:22:07;21.43;;;12.43;;
6193;SDS011;3130;41.564;23.280;2022-12-07T09:24:36;17.47;;;11.83;;
6193;SDS011;3130;41.564;23.280;2022-12-07T09:27:03;22.80;;;12.50;;
6193;SDS011;3130;41.564;23.280;2022-12-07T09:29:30;17.07;;;11.97;;
6193;SDS011;3130;41.564;23.280;2022-12-07T09:31:57;20.77;;;13.63;;
6193;SDS011;3130;41.564;23.280;2022-12-07T09:34:24;20.63;;;13.40;;
6193;SDS011;3130;41.564;23.280;2022-12-07T09:36:51;19.20;;;13.97;;
6193;SDS011;3130;41.564;23.280;2022-12-07T09:39:19;19.33;;;13.00;;
6193;SDS011;3130;41.564;23.280;2022-12-07T09:41:47;20.77;;;11.90;;
6193;SDS011;3130;41.564;23.280;2022-12-07T09:44:15;21.40;;;14.43;;
6193;SDS011;3130;41.564;23.280;2022-12-07T09:46:47;23.60;;;14.63;;
6193;SDS011;3130;41.564;23.280;2022-12-07T09:49:16;22.40;;;14.60;;
6193;SDS011;3130;41.564;23.280;2022-12-07T09:51:45;25.90;;;15.47;;
6193;SDS011;3130;41.564;23.280;2022-12-07T09:54:13;30.73;;;16.47;;
6193;SDS011;3130;41.564;23.280;2022-12-07T09:56:43;24.10;;;16.13;;
6193;SDS011;3130;41.564;23.280;2022-12-07T09:59:13;23.50;;;16.50;;
6193;SDS011;3130;41.564;23.280;2022-12-07T10:01:44;28.57;;;16.80;;
6193;SDS011;3130;41.564;23.280;2022-12-07T10:04:13;20.33;;;15.87;;
6193;SDS011;3130;41.564;23.280;2022-12-07T10:06:43;25.80;;;15.40;;
6193;SDS011;3130;41.564;23.280;2022-12-07T10:09:11;24.00;;;16.97;;
6193;SDS011;3130;41.564;23.280;2022-12-07T10:11:58;27.87;;;18.70;;
6193;SDS011;3130;41.564;23.280;2022-12-07T10:14:30;30.00;;;19.73;;
6193;SDS011;3130;41.564;23.280;2022-12-07T10:16:59;31.87;;;20.43;;
6193;SDS011;3130;41.564;23.280;2022-12-07T10:19:26;32.43;;;19.63;;
6193;SDS011;3130;41.564;23.280;2022-12-07T10:22:02;30.37;;;20.27;;
6193;SDS011;3130;41.564;23.280;2022-12-07T10:24:31;34.43;;;21.63;;
6193;SDS011;3130;41.564;23.280;2022-12-07T10:26:58;31.67;;;19.80;;
6193;SDS011;3130;41.564;23.280;2022-12-07T10:29:28;30.50;;;19.93;;
6193;SDS011;3130;41.564;23.280;2022-12-07T10:31:59;36.53;;;20.47;;
6193;SDS011;3130;41.564;23.280;2022-12-07T10:34:28;26.30;;;18.03;;
6193;SDS011;3130;41.564;23.280;2022-12-07T10:37:13;26.43;;;18.00;;
6193;SDS011;3130;41.564;23.280;2022-12-07T10:39:43;20.87;;;15.17;;
6193;SDS011;3130;41.564;23.280;2022-12-07T10:42:16;15.47;;;12.00;;
6193;SDS011;3130;41.564;23.280;2022-12-07T10:44:46;15.43;;;11.27;;
6193;SDS011;3130;41.564;23.280;2022-12-07T10:47:25;26.37;;;16.97;;
6193;SDS011;3130;41.564;23.280;2022-12-07T10:50:22;21.20;;;10.20;;
6193;SDS011;3130;41.564;23.280;2022-12-07T10:59:18;11.30;;;7.67;;
6193;SDS011;3130;41.564;23.280;2022-12-07T11:02:02;16.73;;;8.57;;
6193;SDS011;3130;41.564;23.280;2022-12-07T11:04:49;11.50;;;7.73;;
6193;SDS011;3130;41.564;23.280;2022-12-07T11:07:34;10.73;;;7.33;;
6193;SDS011;3130;41.564;23.280;2022-12-07T11:10:10;10.97;;;8.90;;
6193;SDS011;3130;41.564;23.280;2022-12-07T11:12:46;16.37;;;9.10;;
6193;SDS011;3130;41.564;23.280;2022-12-07T11:15:24;11.03;;;7.83;;
6193;SDS011;3130;41.564;23.280;2022-12-07T11:17:58;14.80;;;8.10;;
6193;SDS011;3130;41.564;23.280;2022-12-07T11:20:33;10.60;;;8.30;;
6193;SDS011;3130;41.564;23.280;2022-12-07T11:23:10;14.33;;;10.63;;
6193;SDS011;3130;41.564;23.280;2022-12-07T11:25:46;17.37;;;9.93;;
6193;SDS011;3130;41.564;23.280;2022-12-07T11:28:23;13.07;;;8.30;;
6193;SDS011;3130;41.564;23.280;2022-12-07T11:31:01;11.33;;;8.40;;
6193;SDS011;3130;41.564;23.280;2022-12-07T11:33:40;11.80;;;7.63;;
6193;SDS011;3130;41.564;23.280;2022-12-07T11:36:14;14.20;;;10.47;;
6193;SDS011;3130;41.564;23.280;2022-12-07T11:38:57;13.27;;;8.77;;
6193;SDS011;3130;41.564;23.280;2022-12-07T11:41:29;17.13;;;9.73;;
6193;SDS011;3130;41.564;23.280;2022-12-07T11:44:01;20.87;;;13.80;;
6193;SDS011;3130;41.564;23.280;2022-12-07T11:46:35;19.27;;;13.87;;
6193;SDS011;3130;41.564;23.280;2022-12-07T11:49:13;20.30;;;11.57;;
6193;SDS011;3130;41.564;23.280;2022-12-07T11:51:45;18.27;;;11.17;;
6193;SDS011;3130;41.564;23.280;2022-12-07T11:54:18;18.50;;;10.23;;
6193;SDS011;3130;41.564;23.280;2022-12-07T11:56:49;17.77;;;10.53;;
6193;SDS011;3130;41.564;23.280;2022-12-07T11:59:19;12.70;;;9.57;;
6193;SDS011;3130;41.564;23.280;2022-12-07T12:01:53;14.43;;;9.83;;
6193;SDS011;3130;41.564;23.280;2022-12-07T12:04:30;11.13;;;8.30;;
6193;SDS011;3130;41.564;23.280;2022-12-07T12:07:10;15.10;;;9.63;;
6193;SDS011;3130;41.564;23.280;2022-12-07T12:09:44;16.17;;;10.80;;
6193;SDS011;3130;41.564;23.280;2022-12-07T12:12:24;19.57;;;10.77;;
6193;SDS011;3130;41.564;23.280;2022-12-07T12:15:15;14.17;;;10.33;;
6193;SDS011;3130;41.564;23.280;2022-12-07T12:18:15;14.30;;;10.27;;
6193;SDS011;3130;41.564;23.280;2022-12-07T12:20:55;16.93;;;12.60;;
6193;SDS011;3130;41.564;23.280;2022-12-07T12:23:29;13.97;;;10.80;;
6193;SDS011;3130;41.564;23.280;2022-12-07T12:26:03;15.07;;;10.27;;
6193;SDS011;3130;41.564;23.280;2022-12-07T12:28:34;17.73;;;11.33;;
6193;SDS011;3130;41.564;23.280;2022-12-07T12:31:12;20.93;;;11.93;;
6193;SDS011;3130;41.564;23.280;2022-12-07T12:33:43;16.27;;;11.83;;
6193;SDS011;3130;41.564;23.280;2022-12-07T12:36:20;21.10;;;11.33;;
6193;SDS011;3130;41.564;23.280;2022-12-07T12:38:51;17.23;;;12.27;;
6193;SDS011;3130;41.564;23.280;2022-12-07T12:41:58;17.53;;;11.63;;
6193;SDS011;3130;41.564;23.280;2022-12-07T12:44:41;17.30;;;11.00;;
6193;SDS011;3130;41.564;23.280;2022-12-07T12:47:40;18.30;;;11.57;;
6193;SDS011;3130;41.564;23.280;2022-12-07T12:50:26;22.43;;;12.33;;
6193;SDS011;3130;41.564;23.280;2022-12-07T12:55:54;18.30;;;11.13;;
6193;SDS011;3130;41.564;23.280;2022-12-07T12:58:44;15.67;;;9.27;;
6193;SDS011;3130;41.564;23.280;2022-12-07T13:04:23;20.43;;;12.80;;
6193;SDS011;3130;41.564;23.280;2022-12-07T13:06:54;26.60;;;16.27;;
6193;SDS011;3130;41.564;23.280;2022-12-07T13:09:24;18.53;;;11.83;;
6193;SDS011;3130;41.564;23.280;2022-12-07T13:11:56;17.73;;;11.90;;
6193;SDS011;3130;41.564;23.280;2022-12-07T13:14:40;21.30;;;13.70;;
6193;SDS011;3130;41.564;23.280;2022-12-07T13:23:14;16.33;;;11.43;;
6193;SDS011;3130;41.564;23.280;2022-12-07T13:25:48;16.20;;;10.47;;
6193;SDS011;3130;41.564;23.280;2022-12-07T13:28:22;14.73;;;9.30;;
6193;SDS011;3130;41.564;23.280;2022-12-07T13:33:42;18.73;;;11.83;;
6193;SDS011;3130;41.564;23.280;2022-12-07T13:36:12;16.47;;;11.07;;
6193;SDS011;3130;41.564;23.280;2022-12-07T13:38:48;20.20;;;12.47;;
6193;SDS011;3130;41.564;23.280;2022-12-07T13:41:20;17.87;;;13.23;;
6193;SDS011;3130;41.564;23.280;2022-12-07T13:43:50;20.10;;;10.20;;
6193;SDS011;3130;41.564;23.280;2022-12-07T13:46:20;16.47;;;11.17;;
6193;SDS011;3130;41.564;23.280;2022-12-07T13:48:52;16.10;;;10.40;;
6193;SDS011;3130;41.564;23.280;2022-12-07T13:51:21;16.63;;;10.57;;
6193;SDS011;3130;41.564;23.280;2022-12-07T13:53:51;21.73;;;12.20;;
6193;SDS011;3130;41.564;23.280;2022-12-07T13:56:22;18.93;;;13.47;;
6193;SDS011;3130;41.564;23.280;2022-12-07T13:58:54;24.33;;;13.97;;
6193;SDS011;3130;41.564;23.280;2022-12-07T14:01:21;21.33;;;13.83;;
6193;SDS011;3130;41.564;23.280;2022-12-07T14:03:49;18.33;;;13.40;;
6193;SDS011;3130;41.564;23.280;2022-12-07T14:06:17;19.57;;;14.57;;
6193;SDS011;3130;41.564;23.280;2022-12-07T14:09:05;24.70;;;16.40;;
6193;SDS011;3130;41.564;23.280;2022-12-07T14:11:44;21.70;;;14.70;;
6193;SDS011;3130;41.564;23.280;2022-12-07T14:14:13;23.00;;;16.53;;
6193;SDS011;3130;41.564;23.280;2022-12-07T14:16:54;26.00;;;14.93;;
6193;SDS011;3130;41.564;23.280;2022-12-07T14:22:07;23.53;;;16.30;;
6193;SDS011;3130;41.564;23.280;2022-12-07T14:24:41;25.83;;;16.07;;
6193;SDS011;3130;41.564;23.280;2022-12-07T14:27:17;24.50;;;15.57;;
6193;SDS011;3130;41.564;23.280;2022-12-07T14:29:46;25.60;;;15.63;;
6193;SDS011;3130;41.564;23.280;2022-12-07T14:32:23;29.43;;;16.47;;
6193;SDS011;3130;41.564;23.280;2022-12-07T14:34:58;28.50;;;18.50;;
6193;SDS011;3130;41.564;23.280;2022-12-07T14:37:27;25.37;;;17.10;;
6193;SDS011;3130;41.564;23.280;2022-12-07T14:39:56;26.90;;;15.63;;
6193;SDS011;3130;41.564;23.280;2022-12-07T14:42:26;24.80;;;17.37;;
6193;SDS011;3130;41.564;23.280;2022-12-07T14:44:55;25.37;;;16.20;;
6193;SDS011;3130;41.564;23.280;2022-12-07T14:47:23;22.50;;;13.73;;
6193;SDS011;3130;41.564;23.280;2022-12-07T14:49:51;19.83;;;13.63;;
6193;SDS011;3130;41.564;23.280;2022-12-07T14:52:19;25.17;;;14.77;;
6193;SDS011;3130;41.564;23.280;2022-12-07T14:54:48;24.20;;;14.83;;
6193;SDS011;3130;41.564;23.280;2022-12-07T14:57:15;24.37;;;14.30;;
6193;SDS011;3130;41.564;23.280;2022-12-07T14:59:44;19.80;;;13.83;;
6193;SDS011;3130;41.564;23.280;2022-12-07T15:02:11;19.53;;;13.20;;
6193;SDS011;3130;41.564;23.280;2022-12-07T15:04:41;28.53;;;15.30;;
6193;SDS011;3130;41.564;23.280;2022-12-07T15:07:10;22.50;;;15.80;;
6193;SDS011;3130;41.564;23.280;2022-12-07T15:09:42;25.27;;;15.33;;
6193;SDS011;3130;41.564;23.280;2022-12-07T15:12:09;21.83;;;14.33;;
6193;SDS011;3130;41.564;23.280;2022-12-07T15:14:36;22.30;;;14.53;;
6193;SDS011;3130;41.564;23.280;2022-12-07T15:17:04;19.77;;;13.97;;
6193;SDS011;3130;41.564;23.280;2022-12-07T15:19:32;23.47;;;14.00;;
6193;SDS011;3130;41.564;23.280;2022-12-07T15:21:59;23.03;;;16.93;;
6193;SDS011;3130;41.564;23.280;2022-12-07T15:24:26;20.47;;;13.63;;
6193;SDS011;3130;41.564;23.280;2022-12-07T15:26:54;17.77;;;12.37;;